createdAt,value
2022-12-01T00:01:19.616Z,44.33
2022-12-01T00:03:46.400Z,41.60
2022-12-01T00:06:16.302Z,43.07
2022-12-01T00:09:03.898Z,44.03
2022-12-01T00:11:30.828Z,46.67
2022-12-01T00:13:58.095Z,44.23
2022-12-01T00:16:27.359Z,47.90
2022-12-01T00:18:55.658Z,46.77
2022-12-01T00:21:23.949Z,46.80
2022-12-01T00:23:53.437Z,46.37
2022-12-01T00:26:24.609Z,39.40
2022-12-01T00:28:53.096Z,47.20
2022-12-01T00:31:20.208Z,44.33
2022-12-01T00:33:47.268Z,44.93
2022-12-01T00:36:14.366Z,41.53
2022-12-01T00:38:41.566Z,41.50
2022-12-01T00:41:08.461Z,46.40
2022-12-01T00:43:35.202Z,44.63
2022-12-01T00:46:02.080Z,39.23
2022-12-01T00:48:29.108Z,38.80
2022-12-01T00:50:56.114Z,40.43
2022-12-01T00:53:23.447Z,42.73
2022-12-01T00:55:56.059Z,47.07
2022-12-01T00:58:24.296Z,42.87
2022-12-01T01:01:01.480Z,41.83
2022-12-01T01:03:29.625Z,46.10
2022-12-01T01:05:56.641Z,49.70
2022-12-01T01:08:23.473Z,46.30
2022-12-01T01:10:50.955Z,43.87
2022-12-01T01:13:17.752Z,44.03
2022-12-01T01:15:44.622Z,47.07
2022-12-01T01:18:12.518Z,48.50
2022-12-01T01:20:39.601Z,44.77
2022-12-01T01:23:06.326Z,41.77
2022-12-01T01:25:33.585Z,46.13
2022-12-01T01:28:00.415Z,46.20
2022-12-01T01:30:30.276Z,47.03
2022-12-01T01:32:57.049Z,42.53
2022-12-01T01:35:23.710Z,50.87
2022-12-01T01:37:50.940Z,42.57
2022-12-01T01:40:18.314Z,45.20
2022-12-01T01:42:45.022Z,44.57
2022-12-01T01:45:21.538Z,49.87
2022-12-01T01:47:50.536Z,48.27
2022-12-01T01:50:19.995Z,49.40
2022-12-01T01:52:50.904Z,46.27
2022-12-01T01:55:18.508Z,49.43
2022-12-01T01:57:45.868Z,49.87
2022-12-01T02:00:17.120Z,49.57
2022-12-01T02:02:46.052Z,46.70
2022-12-01T02:05:34.527Z,50.03
2022-12-01T02:08:03.387Z,53.70
2022-12-01T02:10:43.198Z,49.73
2022-12-01T02:13:18.801Z,49.23
2022-12-01T02:16:22.509Z,52.23
2022-12-01T02:19:09.490Z,47.57
2022-12-01T02:22:03.548Z,49.67
2022-12-01T02:24:32.966Z,45.67
2022-12-01T02:27:36.437Z,44.43
2022-12-01T02:30:24.686Z,45.77
2022-12-01T02:32:57.267Z,44.60
2022-12-01T02:35:40.382Z,37.63
2022-12-01T02:38:16.861Z,43.63
2022-12-01T02:41:04.618Z,43.37
2022-12-01T02:43:53.500Z,38.93
2022-12-01T02:46:47.582Z,42.83
2022-12-01T02:49:20.521Z,39.40
2022-12-01T02:51:48.711Z,42.70
2022-12-01T02:54:15.897Z,40.43
2022-12-01T02:56:45.196Z,40.03
2022-12-01T02:59:13.455Z,43.83
2022-12-01T03:02:08.970Z,41.30
2022-12-01T03:04:38.801Z,42.30
2022-12-01T03:07:12.094Z,39.87
2022-12-01T03:10:04.365Z,44.90
2022-12-01T03:12:51.836Z,43.33
2022-12-01T03:15:42.681Z,40.53
2022-12-01T03:18:43.163Z,44.70
2022-12-01T03:21:36.270Z,42.13
2022-12-01T03:24:08.371Z,41.33
2022-12-01T03:26:37.876Z,41.27
2022-12-01T03:29:17.944Z,37.60
2022-12-01T03:31:56.914Z,39.87
2022-12-01T03:34:40.790Z,39.57
2022-12-01T03:37:25.468Z,41.50
2022-12-01T03:40:00.238Z,40.80
2022-12-01T03:42:33.661Z,42.20
2022-12-01T03:45:07.261Z,43.13
2022-12-01T03:47:37.403Z,40.43
2022-12-01T03:50:06.689Z,42.90
2022-12-01T03:52:48.316Z,40.43
2022-12-01T03:55:30.180Z,38.07
2022-12-01T03:58:15.734Z,43.80
2022-12-01T04:00:43.809Z,45.00
2022-12-01T04:03:18.594Z,40.40
2022-12-01T04:05:45.510Z,42.47
2022-12-01T04:08:12.316Z,42.47
2022-12-01T04:10:39.181Z,44.27
2022-12-01T04:13:06.036Z,44.23
2022-12-01T04:15:32.777Z,44.67
2022-12-01T04:17:59.619Z,44.73
2022-12-01T04:20:26.357Z,45.90
2022-12-01T04:22:56.182Z,47.20
2022-12-01T04:25:23.108Z,49.17
2022-12-01T04:27:49.947Z,49.60
2022-12-01T04:30:16.980Z,48.90
2022-12-01T04:32:44.571Z,47.87
2022-12-01T04:35:12.707Z,50.57
2022-12-01T04:37:40.265Z,45.07
2022-12-01T04:40:08.165Z,48.40
2022-12-01T04:42:37.093Z,49.07
2022-12-01T04:45:07.038Z,47.23
2022-12-01T04:47:33.769Z,49.17
2022-12-01T04:50:00.645Z,44.87
2022-12-01T04:52:32.016Z,50.23
2022-12-01T04:55:02.092Z,47.83
2022-12-01T04:57:31.581Z,47.50
2022-12-01T04:59:58.352Z,49.00
2022-12-01T05:02:25.205Z,48.57
2022-12-01T05:04:54.887Z,50.23
2022-12-01T05:07:21.613Z,45.60
2022-12-01T05:09:48.812Z,46.50
2022-12-01T05:12:17.171Z,48.10
2022-12-01T05:14:43.878Z,48.00
2022-12-01T05:17:10.634Z,49.10
2022-12-01T05:19:55.994Z,51.70
2022-12-01T05:22:56.838Z,49.40
2022-12-01T05:25:12.326Z,48.13
2022-12-01T05:27:39.087Z,50.37
2022-12-01T05:30:06.625Z,49.47
2022-12-01T05:32:33.355Z,47.10
2022-12-01T05:35:00.111Z,54.00
2022-12-01T05:37:26.868Z,50.80
2022-12-01T05:39:53.595Z,50.80
2022-12-01T05:42:20.424Z,51.77
2022-12-01T05:44:47.470Z,54.83
2022-12-01T05:47:14.341Z,57.77
2022-12-01T05:49:41.158Z,49.80
2022-12-01T05:52:07.881Z,47.83
2022-12-01T05:54:37.312Z,51.90
2022-12-01T05:57:04.346Z,54.10
2022-12-01T05:59:31.110Z,55.47
2022-12-01T06:01:57.965Z,54.83
2022-12-01T06:04:24.957Z,50.57
2022-12-01T06:06:54.341Z,54.73
2022-12-01T06:09:21.022Z,52.50
2022-12-01T06:11:51.278Z,52.10
2022-12-01T06:14:19.352Z,49.90
2022-12-01T06:16:46.072Z,56.60
2022-12-01T06:19:12.883Z,51.53
2022-12-01T06:21:39.614Z,54.67
2022-12-01T06:24:06.793Z,50.80
2022-12-01T06:26:33.679Z,54.70
2022-12-01T06:29:00.458Z,54.57
2022-12-01T06:31:27.361Z,52.03
2022-12-01T06:33:54.277Z,49.40
2022-12-01T06:36:21.001Z,45.97
2022-12-01T06:38:47.785Z,51.83
2022-12-01T06:41:14.526Z,55.50
2022-12-01T06:43:41.372Z,50.57
2022-12-01T06:46:08.375Z,51.67
2022-12-01T06:48:35.536Z,50.87
2022-12-01T06:51:03.173Z,51.33
2022-12-01T06:53:30.043Z,48.43
2022-12-01T06:56:01.425Z,55.53
2022-12-01T06:58:28.587Z,53.60
2022-12-01T07:00:55.605Z,53.57
2022-12-01T07:03:25.457Z,56.40
2022-12-01T07:06:00.097Z,53.10
2022-12-01T07:08:31.490Z,55.57
2022-12-01T07:10:58.233Z,53.27
2022-12-01T07:13:27.677Z,50.33
2022-12-01T07:15:58.355Z,56.33
2022-12-01T07:18:25.560Z,50.90
2022-12-01T07:20:52.289Z,52.20
2022-12-01T07:23:19.066Z,51.17
2022-12-01T07:25:45.888Z,49.30
2022-12-01T07:28:12.589Z,52.80
2022-12-01T07:30:39.620Z,48.87
2022-12-01T07:33:06.431Z,53.30
2022-12-01T07:35:33.170Z,54.33
2022-12-01T07:38:02.688Z,46.50
2022-12-01T07:40:29.367Z,49.20
2022-12-01T07:42:56.072Z,46.80
2022-12-01T07:45:22.880Z,49.93
2022-12-01T07:47:53.896Z,53.43
2022-12-01T07:50:20.874Z,46.63
2022-12-01T07:52:51.267Z,50.70
2022-12-01T07:55:18.072Z,43.80
2022-12-01T07:57:44.862Z,51.37
2022-12-01T08:00:12.355Z,43.97
2022-12-01T08:02:39.231Z,48.33
2022-12-01T08:05:06.153Z,45.37
2022-12-01T08:07:33.030Z,48.87
2022-12-01T08:09:59.816Z,45.73
2022-12-01T08:12:26.527Z,53.77
2022-12-01T08:14:53.212Z,48.17
2022-12-01T08:17:20.261Z,49.63
2022-12-01T08:19:47.253Z,46.27
2022-12-01T08:22:14.149Z,47.00
2022-12-01T08:24:40.945Z,51.80
2022-12-01T08:27:07.673Z,51.10
2022-12-01T08:29:35.856Z,47.33
2022-12-01T08:32:02.583Z,46.50
2022-12-01T08:34:29.290Z,50.97
2022-12-01T08:36:56.118Z,49.90
2022-12-01T08:39:24.143Z,51.30
2022-12-01T08:41:50.852Z,49.67
2022-12-01T08:44:17.685Z,45.60
2022-12-01T08:46:44.431Z,44.60
2022-12-01T08:49:11.217Z,44.67
2022-12-01T08:51:38.057Z,53.40
2022-12-01T08:54:05.094Z,51.90
2022-12-01T08:56:35.563Z,49.30
2022-12-01T08:59:02.690Z,48.70
2022-12-01T09:01:29.549Z,49.03
2022-12-01T09:04:10.849Z,52.00
2022-12-01T09:06:42.709Z,50.83
2022-12-01T09:09:12.004Z,49.10
2022-12-01T09:11:39.238Z,52.13
2022-12-01T09:14:06.285Z,47.17
2022-12-01T09:16:33.448Z,50.80
2022-12-01T09:19:00.402Z,52.50
2022-12-01T09:21:33.056Z,50.27
2022-12-01T09:24:01.312Z,49.03
2022-12-01T09:26:28.609Z,50.20
2022-12-01T09:28:58.373Z,49.30
2022-12-01T09:31:25.754Z,54.30
2022-12-01T09:34:14.734Z,50.30
2022-12-01T09:36:41.787Z,55.57
2022-12-01T09:39:19.588Z,52.97
2022-12-01T09:41:49.393Z,52.63
2022-12-01T09:44:28.204Z,52.37
2022-12-01T09:47:19.254Z,52.47
2022-12-01T09:50:03.517Z,56.63
2022-12-01T09:52:38.448Z,50.07
2022-12-01T09:55:13.433Z,55.90
2022-12-01T09:57:41.770Z,56.83
2022-12-01T10:00:15.110Z,54.20
2022-12-01T10:02:54.881Z,57.00
2022-12-01T10:05:24.767Z,50.00
2022-12-01T10:08:05.123Z,55.23
2022-12-01T10:10:44.826Z,55.00
2022-12-01T10:13:27.613Z,58.37
2022-12-01T10:15:54.435Z,60.60
2022-12-01T10:18:41.477Z,55.57
2022-12-01T10:21:29.350Z,59.80
2022-12-01T10:24:05.246Z,65.30
2022-12-01T10:26:43.246Z,59.27
2022-12-01T10:29:27.230Z,61.17
2022-12-01T10:31:57.863Z,57.60
2022-12-01T10:34:37.548Z,59.03
2022-12-01T10:37:05.184Z,47.50
2022-12-01T10:39:41.548Z,58.73
2022-12-01T10:42:19.095Z,51.23
2022-12-01T10:44:46.847Z,55.10
2022-12-01T10:47:20.423Z,57.27
2022-12-01T10:49:48.107Z,52.10
2022-12-01T10:52:39.555Z,54.90
2022-12-01T10:55:28.121Z,52.83
2022-12-01T10:57:58.600Z,53.20
2022-12-01T11:00:59.174Z,61.47
2022-12-01T11:03:29.028Z,57.13
2022-12-01T11:05:58.320Z,52.90
2022-12-01T11:08:43.873Z,51.30
2022-12-01T11:11:31.540Z,48.07
2022-12-01T11:14:02.077Z,55.10
2022-12-01T11:16:37.381Z,53.50
2022-12-01T11:19:37.322Z,52.30
2022-12-01T11:22:24.626Z,52.47
2022-12-01T11:24:54.442Z,54.77
2022-12-01T11:27:24.373Z,52.50
2022-12-01T11:29:55.625Z,56.13
2022-12-01T11:32:29.406Z,51.10
2022-12-01T11:35:03.708Z,53.60
2022-12-01T11:37:39.019Z,51.00
2022-12-01T11:40:13.436Z,54.70
2022-12-01T11:42:41.351Z,49.60
2022-12-01T11:45:24.024Z,52.20
2022-12-01T11:48:22.996Z,49.50
2022-12-01T11:51:15.479Z,47.10
2022-12-01T11:53:43.549Z,52.27
2022-12-01T11:56:29.029Z,52.70
2022-12-01T11:59:14.664Z,50.97
2022-12-01T12:01:57.985Z,45.67
2022-12-01T12:04:27.733Z,49.63
2022-12-01T12:07:16.269Z,50.03
2022-12-01T12:10:06.599Z,48.17
2022-12-01T12:12:50.031Z,43.07
2022-12-01T12:15:33.384Z,46.10
2022-12-01T12:18:17.663Z,47.23
2022-12-01T12:21:07.848Z,44.50
2022-12-01T12:24:01.261Z,44.43
2022-12-01T12:26:40.089Z,46.80
2022-12-01T12:29:52.148Z,45.93
2022-12-01T12:32:46.924Z,49.43
2022-12-01T12:35:32.259Z,45.40
2022-12-01T12:38:09.019Z,45.43
2022-12-01T12:41:15.027Z,46.40
2022-12-01T12:44:15.832Z,44.43
2022-12-01T12:46:42.537Z,42.63
2022-12-01T12:49:29.268Z,40.20
2022-12-01T12:52:08.636Z,46.33
2022-12-01T12:54:53.221Z,46.93
2022-12-01T12:57:40.080Z,48.50
2022-12-01T13:00:19.185Z,48.43
2022-12-01T13:03:18.392Z,46.63
2022-12-01T13:05:59.053Z,46.13
2022-12-01T13:08:50.042Z,40.67
2022-12-01T13:11:20.298Z,44.77
2022-12-01T13:13:56.037Z,42.57
2022-12-01T13:16:39.349Z,43.27
2022-12-01T13:19:26.361Z,44.00
2022-12-01T13:21:54.896Z,40.50
2022-12-01T13:24:24.622Z,40.00
2022-12-01T13:27:13.457Z,42.40
2022-12-01T13:29:46.633Z,39.90
2022-12-01T13:32:43.123Z,39.90
2022-12-01T13:35:27.041Z,38.90
2022-12-01T13:38:14.100Z,40.10
2022-12-01T13:40:40.978Z,45.13
2022-12-01T13:43:22.029Z,41.77
2022-12-01T13:45:50.107Z,43.53
2022-12-01T13:48:42.209Z,44.93
2022-12-01T13:51:08.935Z,41.50
2022-12-01T13:53:39.219Z,47.30
2022-12-01T13:56:06.150Z,43.17
2022-12-01T13:58:33.014Z,40.53
2022-12-01T14:01:21.837Z,42.50
2022-12-01T14:04:10.758Z,38.80
2022-12-01T14:06:50.890Z,41.67
2022-12-01T14:09:26.725Z,41.37
2022-12-01T14:12:01.643Z,38.73
2022-12-01T14:14:37.445Z,40.57
2022-12-01T14:17:04.800Z,44.83
2022-12-01T14:19:40.792Z,43.70
2022-12-01T14:22:28.034Z,43.03
2022-12-01T14:24:55.955Z,46.23
2022-12-01T14:27:40.983Z,44.93
2022-12-01T14:30:41.985Z,43.63
2022-12-01T14:33:39.810Z,45.33
2022-12-01T14:36:36.854Z,48.03
2022-12-01T14:39:24.706Z,46.13
2022-12-01T14:41:58.985Z,49.07
2022-12-01T14:44:40.771Z,39.13
2022-12-01T14:47:13.342Z,45.37
2022-12-01T14:49:43.103Z,40.43
2022-12-01T14:52:24.167Z,45.47
2022-12-01T14:54:53.061Z,44.87
2022-12-01T14:57:27.470Z,44.87
2022-12-01T15:00:10.622Z,44.37
2022-12-01T15:02:52.014Z,41.23
2022-12-01T15:05:24.091Z,43.87
2022-12-01T15:07:58.856Z,46.63
2022-12-01T15:10:37.195Z,45.17
2022-12-01T15:13:30.785Z,43.07
2022-12-01T15:16:13.150Z,37.63
2022-12-01T15:18:40.092Z,43.93
2022-12-01T15:21:14.094Z,55.73
2022-12-01T15:24:06.047Z,42.13
2022-12-01T15:26:45.873Z,45.57
2022-12-01T15:29:28.705Z,45.37
2022-12-01T15:32:06.028Z,50.53
2022-12-01T15:34:43.554Z,49.13
2022-12-01T15:37:17.023Z,48.23
2022-12-01T15:39:47.378Z,52.00
2022-12-01T15:42:24.356Z,44.70
2022-12-01T15:45:19.015Z,49.97
2022-12-01T15:47:51.023Z,50.20
2022-12-01T15:50:33.481Z,44.30
2022-12-01T15:53:29.478Z,46.07
2022-12-01T15:55:59.232Z,47.93
2022-12-01T15:58:30.398Z,47.17
2022-12-01T16:01:05.200Z,53.60
2022-12-01T16:03:35.011Z,47.87
2022-12-01T16:06:01.930Z,47.03
2022-12-01T16:08:29.408Z,55.23
2022-12-01T16:11:15.962Z,48.20
2022-12-01T16:13:49.764Z,50.83
2022-12-01T16:16:36.545Z,50.80
2022-12-01T16:19:28.098Z,52.70
2022-12-01T16:22:12.007Z,45.63
2022-12-01T16:24:54.650Z,51.67
2022-12-01T16:27:24.670Z,47.57
2022-12-01T16:30:03.798Z,52.57
2022-12-01T16:32:41.219Z,56.43
2022-12-01T16:35:27.471Z,52.33
2022-12-01T16:37:55.072Z,54.23
2022-12-01T16:40:22.499Z,51.07
2022-12-01T16:42:50.061Z,54.43
2022-12-01T16:45:18.931Z,52.37
2022-12-01T16:47:48.043Z,49.27
2022-12-01T16:50:20.381Z,52.90
2022-12-01T16:52:47.404Z,48.50
2022-12-01T16:55:29.026Z,48.47
2022-12-01T16:57:55.997Z,55.80
2022-12-01T17:00:23.478Z,47.47
2022-12-01T17:02:50.637Z,52.57
2022-12-01T17:05:17.423Z,47.03
2022-12-01T17:07:44.207Z,47.93
2022-12-01T17:10:12.045Z,53.37
2022-12-01T17:12:39.114Z,53.67
2022-12-01T17:15:06.811Z,52.53
2022-12-01T17:17:33.748Z,48.23
2022-12-01T17:20:00.525Z,57.83
2022-12-01T17:22:27.606Z,51.73
2022-12-01T17:24:55.539Z,51.90
2022-12-01T17:27:23.591Z,49.47
2022-12-01T17:29:50.504Z,49.40
2022-12-01T17:32:17.582Z,51.20
2022-12-01T17:34:44.231Z,51.73
2022-12-01T17:37:13.790Z,58.87
2022-12-01T17:39:44.493Z,53.63
2022-12-01T17:42:11.248Z,51.23
2022-12-01T17:44:38.268Z,51.83
2022-12-01T17:47:06.733Z,54.23
2022-12-01T17:49:36.321Z,46.37
2022-12-01T17:52:04.357Z,55.27
2022-12-01T17:54:31.362Z,51.43
2022-12-01T17:56:58.113Z,53.60
2022-12-01T17:59:25.029Z,52.57
2022-12-01T18:01:51.905Z,52.63
2022-12-01T18:04:18.658Z,52.30
2022-12-01T18:06:49.307Z,52.83
2022-12-01T18:09:20.445Z,56.03
2022-12-01T18:11:47.178Z,52.07
2022-12-01T18:14:17.607Z,54.37
2022-12-01T18:16:45.325Z,52.70
2022-12-01T18:19:12.354Z,49.27
2022-12-01T18:21:39.779Z,49.27
2022-12-01T18:24:09.266Z,53.53
2022-12-01T18:26:37.637Z,52.73
2022-12-01T18:29:07.533Z,53.20
2022-12-01T18:31:35.484Z,59.50
2022-12-01T18:34:03.492Z,50.30
2022-12-01T18:36:32.142Z,59.90
2022-12-01T18:39:03.456Z,53.77
2022-12-01T18:41:30.719Z,52.33
2022-12-01T18:43:57.439Z,55.93
2022-12-01T18:46:24.573Z,54.47
2022-12-01T18:48:53.827Z,49.17
2022-12-01T18:51:21.161Z,50.50
2022-12-01T18:53:48.033Z,53.67
2022-12-01T18:56:15.656Z,54.53
2022-12-01T18:58:43.009Z,50.50
2022-12-01T19:01:40.463Z,57.87
2022-12-01T19:04:08.738Z,55.87
2022-12-01T19:06:37.780Z,53.57
2022-12-01T19:09:09.430Z,51.20
2022-12-01T19:11:38.687Z,50.53
2022-12-01T19:14:05.414Z,47.90
2022-12-01T19:16:32.776Z,52.53
2022-12-01T19:19:00.982Z,51.40
2022-12-01T19:21:27.749Z,50.70
2022-12-01T19:23:54.704Z,51.07
2022-12-01T19:26:23.227Z,52.40
2022-12-01T19:28:50.100Z,52.93
2022-12-01T19:31:24.348Z,55.70
2022-12-01T19:33:52.737Z,47.93
2022-12-01T19:36:22.520Z,51.57
2022-12-01T19:38:49.495Z,56.67
2022-12-01T19:41:20.398Z,55.83
2022-12-01T19:43:47.831Z,54.50
2022-12-01T19:46:17.812Z,54.57
2022-12-01T19:48:45.127Z,53.70
2022-12-01T19:51:24.314Z,54.80
2022-12-01T19:53:51.739Z,55.10
2022-12-01T19:56:18.846Z,57.40
2022-12-01T19:58:45.813Z,52.10
2022-12-01T20:01:14.637Z,56.63
2022-12-01T20:03:42.007Z,54.57
2022-12-01T20:06:11.273Z,54.10
2022-12-01T20:08:38.807Z,55.47
2022-12-01T20:11:06.375Z,58.73
2022-12-01T20:13:34.904Z,57.93
2022-12-01T20:16:09.745Z,55.43
2022-12-01T20:18:39.879Z,58.00
2022-12-01T20:21:07.833Z,65.03
2022-12-01T20:23:35.450Z,55.10
2022-12-01T20:26:04.928Z,59.00
2022-12-01T20:28:32.625Z,56.57
2022-12-01T20:30:59.546Z,60.20
2022-12-01T20:33:29.383Z,61.97
2022-12-01T20:35:58.191Z,57.10
2022-12-01T20:38:31.031Z,61.87
2022-12-01T20:40:57.879Z,61.20
2022-12-01T20:43:24.718Z,60.60
2022-12-01T20:45:51.666Z,56.90
2022-12-01T20:48:18.696Z,59.80
2022-12-01T20:50:48.552Z,55.00
2022-12-01T20:53:15.695Z,64.37
2022-12-01T20:55:42.447Z,60.10
2022-12-01T20:58:09.403Z,59.57
2022-12-01T21:00:41.123Z,57.67
2022-12-01T21:03:08.290Z,63.30
2022-12-01T21:05:38.330Z,58.77
2022-12-01T21:08:08.754Z,62.93
2022-12-01T21:10:37.950Z,57.20
2022-12-01T21:13:41.416Z,56.70
2022-12-01T21:16:27.632Z,56.73
2022-12-01T21:19:11.313Z,55.40
2022-12-01T21:21:41.652Z,55.37
2022-12-01T21:24:17.233Z,58.03
2022-12-01T21:26:54.545Z,58.30
2022-12-01T21:29:25.102Z,51.10
2022-12-01T21:31:59.911Z,58.13
2022-12-01T21:34:28.837Z,57.13
2022-12-01T21:36:59.029Z,50.47
2022-12-01T21:39:26.571Z,54.77
2022-12-01T21:41:56.669Z,61.50
2022-12-01T21:44:32.945Z,53.50
2022-12-01T21:47:12.855Z,54.40
2022-12-01T21:49:39.863Z,58.33
2022-12-01T21:52:16.770Z,53.90
2022-12-01T21:54:43.620Z,56.07
2022-12-01T21:57:41.228Z,55.43
2022-12-01T22:00:26.618Z,57.00
2022-12-01T22:03:00.167Z,53.37
2022-12-01T22:05:46.041Z,53.27
2022-12-01T22:08:36.577Z,53.70
2022-12-01T22:11:19.889Z,63.23
2022-12-01T22:13:49.685Z,53.27
2022-12-01T22:16:22.117Z,59.23
2022-12-01T22:18:55.241Z,62.37
2022-12-01T22:21:21.867Z,61.23
2022-12-01T22:24:10.453Z,57.33
2022-12-01T22:26:38.918Z,65.13
2022-12-01T22:29:20.823Z,60.90
2022-12-01T22:31:47.983Z,70.53
2022-12-01T22:34:16.967Z,65.23
2022-12-01T22:36:44.125Z,73.63
2022-12-01T22:39:31.050Z,81.60
2022-12-01T22:42:01.424Z,70.53
2022-12-01T22:44:30.399Z,67.00
2022-12-01T22:47:03.449Z,76.90
2022-12-01T22:49:30.602Z,71.63
2022-12-01T22:52:15.603Z,74.13
2022-12-01T22:54:50.334Z,85.03
2022-12-01T22:57:24.811Z,74.67
2022-12-01T22:59:56.943Z,76.30
2022-12-01T23:02:33.266Z,79.03
2022-12-01T23:05:20.020Z,89.90
2022-12-01T23:07:46.995Z,78.13
2022-12-01T23:10:20.973Z,85.50
2022-12-01T23:12:50.295Z,87.80
2022-12-01T23:15:36.462Z,89.20
2022-12-01T23:18:18.507Z,95.13
2022-12-01T23:20:48.651Z,86.00
2022-12-01T23:23:20.768Z,90.17
2022-12-01T23:25:52.635Z,84.63
2022-12-01T23:28:20.274Z,84.30
2022-12-01T23:30:51.123Z,85.07
2022-12-01T23:33:26.375Z,87.40
2022-12-01T23:36:14.286Z,90.23
2022-12-01T23:38:50.133Z,74.93
2022-12-01T23:41:47.592Z,90.27
2022-12-01T23:44:24.576Z,91.37
2022-12-01T23:46:54.123Z,79.77
2022-12-01T23:49:28.807Z,81.70
2022-12-01T23:51:59.171Z,82.17
2022-12-01T23:54:28.997Z,79.03
2022-12-01T23:57:04.034Z,85.73
2022-12-01T23:59:31.821Z,84.13
